createdAt,value
2023-02-09T00:00:48.196Z,78.50
2023-02-09T00:03:35.545Z,78.50
2023-02-09T00:06:23.207Z,78.90
2023-02-09T00:09:09.000Z,79.00
2023-02-09T00:12:13.558Z,79.60
2023-02-09T00:14:59.075Z,78.90
2023-02-09T00:17:44.843Z,79.50
2023-02-09T00:20:31.911Z,79.10
2023-02-09T00:23:17.684Z,79.30
2023-02-09T00:26:05.895Z,79.60
2023-02-09T00:28:51.664Z,79.40
2023-02-09T00:31:39.912Z,79.70
2023-02-09T00:34:25.792Z,79.70
2023-02-09T00:37:16.028Z,80.10
2023-02-09T00:40:06.633Z,80.50
2023-02-09T00:42:53.723Z,81.10
2023-02-09T00:45:39.826Z,81.30
2023-02-09T00:48:26.281Z,81.60
2023-02-09T00:51:12.354Z,81.40
2023-02-09T00:53:59.683Z,81.10
2023-02-09T00:56:45.626Z,81.60
2023-02-09T00:59:33.433Z,81.90
2023-02-09T01:02:19.482Z,82.10
2023-02-09T01:05:06.050Z,82.30
2023-02-09T01:07:52.099Z,82.40
2023-02-09T01:10:40.542Z,83.00
2023-02-09T01:13:26.324Z,83.10
2023-02-09T01:16:15.393Z,83.20
2023-02-09T01:19:01.860Z,83.20
2023-02-09T01:21:49.271Z,83.20
2023-02-09T01:24:36.291Z,83.20
2023-02-09T01:27:23.751Z,82.90
2023-02-09T01:30:10.745Z,83.00
2023-02-09T01:32:57.060Z,83.20
2023-02-09T01:35:42.756Z,84.80
2023-02-09T01:38:28.688Z,84.40
2023-02-09T01:41:14.900Z,84.70
2023-02-09T01:44:03.448Z,84.60
2023-02-09T01:46:49.256Z,84.20
2023-02-09T01:49:35.285Z,84.40
2023-02-09T01:52:25.609Z,85.20
2023-02-09T01:55:14.740Z,83.70
2023-02-09T01:58:03.731Z,83.60
2023-02-09T02:00:51.451Z,83.20
2023-02-09T02:03:39.367Z,83.90
2023-02-09T02:06:25.425Z,83.10
2023-02-09T02:09:13.604Z,84.40
2023-02-09T02:12:00.736Z,84.20
2023-02-09T02:14:46.486Z,83.90
2023-02-09T02:17:47.667Z,84.30
2023-02-09T02:20:59.567Z,84.60
2023-02-09T02:23:56.574Z,84.90
2023-02-09T02:26:53.522Z,84.60
2023-02-09T02:30:08.346Z,85.00
2023-02-09T02:33:06.712Z,84.60
2023-02-09T02:35:58.151Z,83.90
2023-02-09T02:38:54.340Z,84.50
2023-02-09T02:42:07.199Z,84.40
2023-02-09T02:44:59.898Z,84.80
2023-02-09T02:47:52.015Z,85.80
2023-02-09T02:50:45.569Z,85.90
2023-02-09T02:53:35.877Z,86.10
2023-02-09T02:56:30.569Z,86.40
2023-02-09T02:59:21.307Z,85.90
2023-02-09T03:02:12.474Z,85.30
2023-02-09T03:05:01.669Z,84.60
2023-02-09T03:07:49.835Z,85.00
2023-02-09T03:10:37.495Z,84.60
2023-02-09T03:13:40.832Z,85.80
2023-02-09T03:16:34.444Z,85.10
2023-02-09T03:19:32.986Z,85.30
2023-02-09T03:22:29.138Z,85.80
2023-02-09T03:25:22.487Z,85.00
2023-02-09T03:28:12.348Z,84.60
2023-02-09T03:31:00.017Z,84.50
2023-02-09T03:33:46.231Z,84.40
2023-02-09T03:36:33.664Z,84.00
2023-02-09T03:39:19.474Z,84.20
2023-02-09T03:42:07.469Z,83.60
2023-02-09T03:44:52.963Z,84.60
2023-02-09T03:47:38.332Z,84.40
2023-02-09T03:50:24.274Z,85.00
2023-02-09T03:53:09.835Z,85.80
2023-02-09T03:55:55.690Z,86.00
2023-02-09T03:58:42.821Z,85.90
2023-02-09T04:01:28.247Z,86.60
2023-02-09T04:04:14.176Z,86.00
2023-02-09T04:07:00.445Z,86.60
2023-02-09T04:09:46.207Z,86.60
2023-02-09T04:12:32.269Z,85.60
2023-02-09T04:15:19.579Z,87.20
2023-02-09T04:18:05.400Z,87.80
2023-02-09T04:20:51.084Z,87.30
2023-02-09T04:23:37.019Z,86.80
2023-02-09T04:26:22.967Z,85.70
2023-02-09T04:29:08.452Z,86.60
2023-02-09T04:31:56.056Z,86.30
2023-02-09T04:34:41.488Z,87.20
2023-02-09T04:37:27.252Z,87.90
2023-02-09T04:40:13.049Z,87.30
2023-02-09T04:42:58.725Z,86.10
2023-02-09T04:45:44.862Z,85.50
2023-02-09T04:48:32.054Z,85.00
2023-02-09T04:51:18.006Z,85.50
2023-02-09T04:54:04.010Z,85.40
2023-02-09T04:57:09.847Z,85.20
2023-02-09T04:59:55.704Z,85.30
2023-02-09T05:02:41.415Z,86.20
2023-02-09T05:05:28.707Z,85.80
2023-02-09T05:08:14.548Z,85.60
2023-02-09T05:11:00.565Z,84.40
2023-02-09T05:13:46.639Z,85.40
2023-02-09T05:16:32.096Z,85.90
2023-02-09T05:19:17.799Z,86.00
2023-02-09T05:22:04.923Z,85.50
2023-02-09T05:24:50.632Z,85.40
2023-02-09T05:27:36.447Z,85.80
2023-02-09T05:30:22.579Z,86.00
2023-02-09T05:33:08.010Z,86.80
2023-02-09T05:35:55.761Z,87.50
2023-02-09T05:38:42.876Z,86.60
2023-02-09T05:41:46.990Z,86.40
2023-02-09T05:44:32.697Z,87.80
2023-02-09T05:47:20.368Z,88.30
2023-02-09T05:50:06.259Z,87.60
2023-02-09T05:52:52.224Z,88.20
2023-02-09T05:55:39.402Z,89.20
2023-02-09T05:58:24.894Z,88.50
2023-02-09T06:01:10.895Z,88.60
2023-02-09T06:03:56.309Z,88.00
2023-02-09T06:06:42.180Z,87.40
2023-02-09T06:09:28.660Z,87.70
2023-02-09T06:12:15.691Z,88.20
2023-02-09T06:15:01.564Z,88.40
2023-02-09T06:17:47.572Z,87.70
2023-02-09T06:20:33.195Z,89.20
2023-02-09T06:23:18.875Z,88.20
2023-02-09T06:26:06.851Z,88.60
2023-02-09T06:28:53.656Z,88.20
2023-02-09T06:31:41.908Z,87.20
2023-02-09T06:34:28.192Z,88.00
2023-02-09T06:37:13.652Z,88.20
2023-02-09T06:39:59.522Z,88.10
2023-02-09T06:42:45.263Z,87.80
2023-02-09T06:45:32.392Z,88.00
2023-02-09T06:48:18.355Z,88.00
2023-02-09T06:51:08.185Z,87.80
2023-02-09T06:53:53.705Z,87.90
2023-02-09T06:56:39.318Z,87.40
2023-02-09T06:59:24.883Z,87.60
2023-02-09T07:02:11.852Z,87.50
2023-02-09T07:05:00.209Z,87.40
2023-02-09T07:07:46.540Z,88.50
2023-02-09T07:10:32.181Z,89.20
2023-02-09T07:13:17.655Z,89.00
2023-02-09T07:16:07.729Z,88.20
2023-02-09T07:18:54.945Z,88.50
2023-02-09T07:21:41.004Z,88.80
2023-02-09T07:24:26.688Z,88.80
2023-02-09T07:27:12.139Z,88.70
2023-02-09T07:29:59.316Z,88.60
2023-02-09T07:32:46.368Z,88.70
2023-02-09T07:35:33.481Z,89.10
2023-02-09T07:38:19.510Z,89.40
2023-02-09T07:41:06.871Z,89.00
2023-02-09T07:43:52.952Z,89.00
2023-02-09T07:46:38.700Z,88.60
2023-02-09T07:49:24.578Z,88.90
2023-02-09T07:52:12.214Z,88.50
2023-02-09T07:54:57.668Z,88.10
2023-02-09T07:57:43.905Z,87.90
2023-02-09T08:00:29.971Z,88.30
2023-02-09T08:03:18.169Z,88.20
2023-02-09T08:06:10.734Z,87.40
2023-02-09T08:08:58.162Z,86.30
2023-02-09T08:11:48.475Z,86.30
2023-02-09T08:14:39.825Z,86.80
2023-02-09T08:17:27.841Z,86.70
2023-02-09T08:20:17.787Z,85.90
2023-02-09T08:23:09.090Z,85.60
2023-02-09T08:26:02.884Z,84.60
2023-02-09T08:28:49.596Z,84.60
2023-02-09T08:31:37.850Z,84.50
2023-02-09T08:34:23.758Z,83.90
2023-02-09T08:37:09.776Z,83.00
2023-02-09T08:39:55.684Z,84.40
2023-02-09T08:42:42.887Z,83.90
2023-02-09T08:45:28.934Z,83.80
2023-02-09T08:48:14.739Z,83.30
2023-02-09T08:51:01.272Z,83.30
2023-02-09T08:53:52.426Z,82.60
2023-02-09T08:56:38.436Z,82.30
2023-02-09T08:59:25.818Z,82.50
2023-02-09T09:02:11.587Z,82.60
2023-02-09T09:04:57.258Z,81.30
2023-02-09T09:07:43.335Z,81.30
2023-02-09T09:10:29.669Z,81.10
2023-02-09T09:13:15.480Z,79.90
2023-02-09T09:16:05.070Z,80.90
2023-02-09T09:18:51.224Z,79.40
2023-02-09T09:21:37.106Z,78.20
2023-02-09T09:24:23.783Z,76.80
2023-02-09T09:27:11.146Z,75.70
2023-02-09T09:29:57.100Z,75.30
2023-02-09T09:32:44.423Z,73.60
2023-02-09T09:35:31.016Z,73.30
2023-02-09T09:38:16.942Z,74.00
2023-02-09T09:41:03.650Z,73.90
2023-02-09T09:43:50.325Z,74.50
2023-02-09T09:46:39.510Z,74.70
2023-02-09T09:49:28.729Z,74.80
2023-02-09T09:52:21.010Z,76.00
2023-02-09T09:55:09.844Z,76.20
2023-02-09T09:57:58.546Z,76.00
2023-02-09T10:00:45.316Z,77.80
2023-02-09T10:03:31.084Z,76.30
2023-02-09T10:06:21.167Z,75.20
2023-02-09T10:09:16.089Z,74.50
2023-02-09T10:12:19.004Z,71.90
2023-02-09T10:15:22.063Z,70.60
2023-02-09T10:18:14.278Z,70.20
2023-02-09T10:21:03.460Z,68.10
2023-02-09T10:24:02.691Z,67.80
2023-02-09T10:27:03.768Z,68.00
2023-02-09T10:29:49.389Z,69.20
2023-02-09T10:32:39.983Z,67.30
2023-02-09T10:35:28.575Z,67.80
2023-02-09T10:38:18.326Z,67.00
2023-02-09T10:41:10.265Z,68.00
2023-02-09T10:43:56.408Z,68.00
2023-02-09T10:46:42.454Z,68.30
2023-02-09T10:49:31.191Z,67.60
2023-02-09T10:52:20.458Z,67.50
2023-02-09T10:55:24.251Z,66.20
2023-02-09T10:58:21.994Z,64.50
2023-02-09T11:01:19.317Z,66.20
2023-02-09T11:04:07.097Z,67.10
2023-02-09T11:06:55.413Z,66.50
2023-02-09T11:09:45.774Z,65.90
2023-02-09T11:12:31.599Z,65.60
2023-02-09T11:15:26.371Z,66.60
2023-02-09T11:18:16.999Z,66.90
2023-02-09T11:21:10.504Z,68.50
2023-02-09T11:24:02.073Z,70.10
2023-02-09T11:26:50.483Z,70.00
2023-02-09T11:29:40.941Z,70.60
2023-02-09T11:32:34.126Z,72.00
2023-02-09T11:35:24.117Z,72.30
2023-02-09T11:38:15.799Z,71.40
2023-02-09T11:41:26.032Z,72.60
2023-02-09T11:44:20.848Z,72.80
2023-02-09T11:47:07.781Z,72.40
2023-02-09T11:49:58.479Z,72.10
2023-02-09T11:52:51.561Z,72.20
2023-02-09T11:55:42.975Z,71.80
2023-02-09T11:58:38.683Z,71.80
2023-02-09T12:01:32.605Z,72.80
2023-02-09T12:04:22.157Z,73.00
2023-02-09T12:07:17.651Z,73.30
2023-02-09T12:10:15.872Z,74.30
2023-02-09T12:13:11.433Z,73.90
2023-02-09T12:16:00.585Z,74.00
2023-02-09T12:18:47.135Z,74.10
2023-02-09T12:21:38.159Z,73.50
2023-02-09T12:24:39.366Z,73.80
2023-02-09T12:27:27.061Z,74.20
2023-02-09T12:30:50.385Z,75.50
2023-02-09T12:33:37.806Z,75.60
2023-02-09T12:36:29.596Z,76.80
2023-02-09T12:39:24.342Z,78.20
2023-02-09T12:42:39.153Z,78.30
2023-02-09T12:45:34.450Z,79.70
2023-02-09T12:48:21.274Z,79.20
2023-02-09T12:51:39.557Z,80.00
2023-02-09T12:54:38.686Z,80.00
2023-02-09T12:57:53.300Z,80.60
2023-02-09T13:00:51.729Z,79.20
2023-02-09T13:03:44.073Z,79.60
2023-02-09T13:06:39.354Z,80.10
2023-02-09T13:09:29.116Z,80.20
2023-02-09T13:12:20.058Z,79.70
2023-02-09T13:15:13.944Z,81.40
2023-02-09T13:18:09.912Z,82.00
2023-02-09T13:21:04.323Z,81.20
2023-02-09T13:24:00.830Z,81.60
2023-02-09T13:26:52.270Z,83.20
2023-02-09T13:29:38.262Z,85.00
2023-02-09T13:32:35.148Z,84.70
2023-02-09T13:35:24.432Z,85.10
2023-02-09T13:38:16.219Z,84.30
2023-02-09T13:41:03.163Z,85.40
2023-02-09T13:43:49.122Z,85.60
2023-02-09T13:46:35.462Z,85.70
2023-02-09T13:49:24.287Z,85.40
2023-02-09T13:52:12.599Z,84.40
2023-02-09T13:55:10.404Z,84.90
2023-02-09T13:58:00.414Z,84.00
2023-02-09T14:00:49.795Z,84.10
2023-02-09T14:03:46.901Z,83.90
2023-02-09T14:06:47.596Z,84.10
2023-02-09T14:09:43.178Z,83.40
2023-02-09T14:12:51.451Z,83.00
2023-02-09T14:15:58.416Z,83.40
2023-02-09T14:18:47.786Z,82.90
2023-02-09T14:21:46.174Z,82.70
2023-02-09T14:24:41.950Z,81.80
2023-02-09T14:27:29.573Z,83.00
2023-02-09T14:30:17.274Z,84.00
2023-02-09T14:33:03.925Z,84.30
2023-02-09T14:35:55.905Z,83.80
2023-02-09T14:38:43.007Z,84.10
2023-02-09T14:41:30.629Z,84.30
2023-02-09T14:44:21.297Z,85.40
2023-02-09T14:47:28.814Z,86.60
2023-02-09T14:50:17.266Z,87.60
2023-02-09T14:53:06.940Z,87.70
2023-02-09T14:55:54.591Z,87.60
2023-02-09T14:58:40.189Z,88.20
2023-02-09T15:01:25.790Z,88.80
2023-02-09T15:04:11.889Z,88.80
2023-02-09T15:07:01.965Z,89.20
2023-02-09T15:09:48.605Z,89.40
2023-02-09T15:12:35.730Z,90.00
2023-02-09T15:15:22.822Z,90.30
2023-02-09T15:18:19.027Z,90.00
2023-02-09T15:21:05.210Z,90.10
2023-02-09T15:23:51.233Z,90.30
2023-02-09T15:26:37.792Z,90.20
2023-02-09T15:29:26.058Z,90.40
2023-02-09T15:32:15.468Z,90.90
2023-02-09T15:35:01.149Z,91.20
2023-02-09T15:37:49.522Z,90.90
2023-02-09T15:40:58.656Z,91.20
2023-02-09T15:44:02.769Z,90.70
2023-02-09T15:47:08.524Z,91.00
2023-02-09T15:49:54.184Z,91.70
2023-02-09T15:52:40.009Z,91.80
2023-02-09T15:55:26.825Z,92.00
2023-02-09T15:58:15.194Z,91.80
2023-02-09T16:01:00.542Z,92.30
2023-02-09T16:03:48.113Z,92.30
2023-02-09T16:06:35.752Z,92.30
2023-02-09T16:09:25.050Z,92.20
2023-02-09T16:12:11.497Z,92.40
2023-02-09T16:14:57.488Z,92.60
2023-02-09T16:17:43.464Z,93.10
2023-02-09T16:20:31.532Z,93.20
2023-02-09T16:23:21.682Z,93.40
2023-02-09T16:26:09.409Z,93.40
2023-02-09T16:28:55.676Z,93.30
2023-02-09T16:31:41.728Z,93.40
2023-02-09T16:34:27.945Z,93.30
2023-02-09T16:37:17.752Z,93.60
2023-02-09T16:40:10.621Z,93.70
2023-02-09T16:42:58.046Z,93.80
2023-02-09T16:46:01.189Z,94.10
2023-02-09T16:48:49.182Z,93.90
2023-02-09T16:51:35.155Z,94.20
2023-02-09T16:54:22.468Z,94.50
2023-02-09T16:57:10.584Z,94.70
2023-02-09T16:59:56.710Z,94.70
2023-02-09T17:02:43.646Z,95.00
2023-02-09T17:05:29.912Z,95.30
2023-02-09T17:08:17.274Z,95.20
2023-02-09T17:11:04.921Z,95.30
2023-02-09T17:13:51.179Z,95.60
2023-02-09T17:16:38.352Z,95.70
2023-02-09T17:19:23.909Z,96.40
2023-02-09T17:22:10.966Z,96.70
2023-02-09T17:24:56.386Z,96.90
2023-02-09T17:27:43.487Z,96.90
2023-02-09T17:30:31.528Z,97.10
2023-02-09T17:33:21.642Z,97.20
2023-02-09T17:36:27.322Z,97.60
2023-02-09T17:39:14.027Z,97.50
2023-02-09T17:42:00.070Z,97.50
2023-02-09T17:44:47.534Z,97.90
2023-02-09T17:47:33.299Z,97.80
2023-02-09T17:50:19.057Z,97.60
2023-02-09T17:53:06.234Z,97.90
2023-02-09T17:55:52.194Z,97.80
2023-02-09T17:58:37.855Z,97.90
2023-02-09T18:01:29.084Z,97.80
2023-02-09T18:04:17.000Z,98.40
2023-02-09T18:07:02.567Z,99.10
2023-02-09T18:09:48.185Z,99.40
2023-02-09T18:12:34.117Z,99.90
2023-02-09T18:15:21.534Z,99.80
2023-02-09T18:18:08.906Z,99.70
2023-02-09T18:20:54.916Z,99.90
2023-02-09T18:23:42.660Z,99.80
2023-02-09T18:26:29.195Z,99.90
2023-02-09T18:29:14.991Z,99.80
2023-02-09T18:32:01.974Z,99.70
2023-02-09T18:34:48.891Z,99.90
2023-02-09T18:37:34.356Z,99.90
2023-02-09T18:40:20.232Z,99.90
2023-02-09T18:43:06.869Z,99.90
2023-02-09T18:45:52.356Z,99.90
2023-02-09T18:48:38.046Z,99.90
2023-02-09T18:51:25.630Z,99.90
2023-02-09T18:54:11.299Z,99.90
2023-02-09T18:56:57.679Z,99.90
2023-02-09T18:59:46.784Z,99.90
2023-02-09T19:02:33.304Z,99.90
2023-02-09T19:05:18.946Z,99.90
2023-02-09T19:08:07.591Z,99.90
2023-02-09T19:10:53.325Z,99.90
2023-02-09T19:13:39.161Z,99.90
2023-02-09T19:16:25.012Z,99.90
2023-02-09T19:19:12.584Z,99.90
2023-02-09T19:22:00.186Z,99.90
2023-02-09T19:24:48.444Z,99.90
2023-02-09T19:27:34.281Z,99.90
2023-02-09T19:30:25.194Z,99.90
2023-02-09T19:33:12.286Z,99.90
2023-02-09T19:35:58.696Z,99.90
2023-02-09T19:38:44.709Z,99.90
2023-02-09T19:41:33.195Z,99.90
2023-02-09T19:44:18.765Z,99.90
2023-02-09T19:47:04.489Z,99.90
2023-02-09T19:49:50.131Z,99.90
2023-02-09T19:52:38.223Z,99.90
2023-02-09T19:55:23.993Z,99.90
2023-02-09T19:58:10.854Z,99.90
2023-02-09T20:00:56.632Z,99.90
2023-02-09T20:03:42.170Z,99.90
2023-02-09T20:06:30.856Z,99.90
2023-02-09T20:09:16.783Z,99.90
2023-02-09T20:12:02.577Z,99.90
2023-02-09T20:14:49.511Z,99.90
2023-02-09T20:17:35.100Z,99.90
2023-02-09T20:20:20.796Z,99.90
2023-02-09T20:23:06.907Z,99.90
2023-02-09T20:25:52.648Z,99.90
2023-02-09T20:28:38.337Z,99.90
2023-02-09T20:31:26.478Z,99.90
2023-02-09T20:34:15.366Z,99.90
2023-02-09T20:37:00.908Z,99.90
2023-02-09T20:39:46.807Z,99.90
2023-02-09T20:42:51.337Z,99.90
2023-02-09T20:45:55.649Z,99.90
2023-02-09T20:48:43.831Z,99.90
2023-02-09T20:51:30.766Z,99.90
2023-02-09T20:54:16.318Z,99.90
2023-02-09T20:57:02.171Z,99.90
2023-02-09T20:59:48.560Z,99.90
2023-02-09T21:02:34.525Z,99.90
2023-02-09T21:05:22.000Z,99.90
2023-02-09T21:08:09.198Z,99.90
2023-02-09T21:10:55.825Z,99.90
2023-02-09T21:13:41.890Z,99.90
2023-02-09T21:16:28.310Z,99.90
2023-02-09T21:19:14.881Z,99.90
2023-02-09T21:22:05.949Z,99.90
2023-02-09T21:26:08.710Z,99.90
2023-02-09T21:28:58.353Z,99.90
2023-02-09T21:32:10.639Z,99.90
2023-02-09T21:34:57.062Z,99.90
2023-02-09T21:37:43.422Z,99.90
2023-02-09T21:43:15.003Z,99.90
2023-02-09T21:48:36.700Z,99.90
2023-02-09T21:51:24.131Z,99.90
2023-02-09T21:54:13.460Z,99.90
2023-02-09T21:56:59.455Z,99.90
2023-02-09T21:59:45.763Z,99.90
2023-02-09T22:02:31.669Z,99.90
2023-02-09T22:05:20.139Z,99.90
2023-02-09T22:08:06.317Z,99.90
2023-02-09T22:10:53.392Z,99.90
2023-02-09T22:13:41.109Z,99.90
2023-02-09T22:16:27.292Z,99.90
2023-02-09T22:19:14.204Z,99.90
2023-02-09T22:22:03.949Z,99.90
2023-02-09T22:24:50.180Z,99.90
2023-02-09T22:27:35.912Z,99.90
2023-02-09T22:30:22.211Z,99.90
2023-02-09T22:33:08.190Z,99.90
2023-02-09T22:35:54.545Z,99.90
2023-02-09T22:38:42.054Z,99.90
2023-02-09T22:41:27.783Z,99.90
2023-02-09T22:44:15.773Z,99.90
2023-02-09T22:47:01.811Z,99.90
2023-02-09T22:49:47.564Z,99.90
2023-02-09T22:52:34.334Z,99.90
2023-02-09T22:55:21.477Z,99.90
2023-02-09T22:58:07.172Z,99.90
2023-02-09T23:00:52.768Z,99.90
2023-02-09T23:03:39.177Z,99.90
2023-02-09T23:06:27.528Z,99.90
2023-02-09T23:09:14.388Z,99.90
2023-02-09T23:12:02.017Z,99.90
2023-02-09T23:14:48.110Z,99.90
2023-02-09T23:17:34.179Z,99.90
2023-02-09T23:20:19.699Z,99.90
2023-02-09T23:23:06.765Z,99.90
2023-02-09T23:25:52.481Z,99.90
2023-02-09T23:28:39.368Z,99.90
2023-02-09T23:31:25.365Z,99.90
2023-02-09T23:34:13.959Z,99.90
2023-02-09T23:37:05.172Z,99.90
2023-02-09T23:39:59.256Z,99.90
2023-02-09T23:42:44.821Z,99.90
2023-02-09T23:45:31.851Z,99.90
2023-02-09T23:48:17.861Z,99.90
2023-02-09T23:51:06.389Z,99.90
2023-02-09T23:53:53.478Z,99.90
2023-02-09T23:56:39.579Z,99.90
2023-02-09T23:59:25.623Z,99.90
